Time;durP1;ratioP1;P1;durP2;ratioP2;P2;SDS_P1;SDS_P2;PMS_P1;PMS_P2;Temp;Humidity;BMP_temperature;BMP_pressure;BME280_temperature;BME280_humidity;BME280_pressure;Samples;Min_cycle;Max_cycle;Signal;HPM_P1;HPM_P2
2021/10/12 02:45:42;;;;;;;29.98;20.00;;;11.80;91.90;;;;;;5569683;24;20087;-78
2021/10/12 02:48:08;;;;;;;32.92;20.05;;;11.80;91.90;;;;;;4777676;30;20036;-78
2021/10/12 02:50:34;;;;;;;36.58;19.52;;;11.80;91.90;;;;;;4777774;29;20198;-78
2021/10/12 02:52:59;;;;;;;32.72;18.35;;;11.80;91.90;;;;;;4763100;29;20028;-79
2021/10/12 02:55:25;;;;;;;28.33;18.85;;;11.80;91.90;;;;;;4776711;30;20019;-79
2021/10/12 02:57:51;;;;;;;35.80;20.40;;;11.90;91.90;;;;;;4780843;29;20031;-79
2021/10/12 03:00:17;;;;;;;32.90;18.88;;;11.90;91.90;;;;;;4780717;29;20038;-79
2021/10/12 03:02:43;;;;;;;31.48;20.45;;;11.80;92.00;;;;;;4780538;29;20271;-78
2021/10/12 03:05:09;;;;;;;36.53;20.52;;;11.70;92.10;;;;;;4780697;29;20031;-79
2021/10/12 03:07:34;;;;;;;31.20;19.58;;;11.70;92.20;;;;;;4780620;29;20035;-79
2021/10/12 03:10:01;;;;;;;27.83;19.80;;;11.60;92.30;;;;;;4765861;30;20594;-79
2021/10/12 03:12:27;;;;;;;32.15;19.23;;;11.60;92.50;;;;;;4780444;29;20034;-79
2021/10/12 03:14:53;;;;;;;30.83;19.08;;;11.60;92.50;;;;;;4780507;29;20032;-79
2021/10/12 03:17:19;;;;;;;30.95;18.88;;;11.60;92.50;;;;;;4755392;30;20030;-78
2021/10/12 03:19:44;;;;;;;32.97;19.73;;;11.50;92.70;;;;;;4777496;29;20355;-78
2021/10/12 03:22:12;;;;;;;30.30;19.67;;;11.50;92.70;;;;;;4777282;29;20043;-78
2021/10/12 03:24:38;;;;;;;29.27;19.38;;;11.40;92.90;;;;;;4777212;29;20036;-79
2021/10/12 03:27:06;;;;;;;32.30;19.47;;;11.40;93.00;;;;;;4777461;30;20039;-79
2021/10/12 03:29:32;;;;;;;31.17;19.63;;;11.30;93.20;;;;;;4777360;29;20047;-78
2021/10/12 03:32:01;;;;;;;31.30;19.35;;;11.30;93.10;;;;;;4777318;29;20032;-78
2021/10/12 03:34:28;;;;;;;38.72;20.90;;;11.30;93.30;;;;;;4777283;29;20346;-78
2021/10/12 03:36:54;;;;;;;32.00;19.92;;;11.30;93.30;;;;;;4777299;29;20032;-78
2021/10/12 03:39:21;;;;;;;33.88;20.75;;;11.30;93.40;;;;;;4777184;29;20090;-78
2021/10/12 03:41:46;;;;;;;30.83;20.70;;;11.20;93.50;;;;;;4776888;30;20055;-78
2021/10/12 03:44:12;;;;;;;34.58;21.27;;;11.20;93.50;;;;;;4777069;30;20061;-78
2021/10/12 03:46:38;;;;;;;32.30;22.08;;;11.20;93.70;;;;;;4776516;30;20087;-78
2021/10/12 03:49:04;;;;;;;42.00;21.35;;;11.10;93.80;;;;;;4791976;29;20162;-78
2021/10/12 03:51:30;;;;;;;34.38;21.90;;;11.10;93.80;;;;;;4791802;29;20024;-78
2021/10/12 03:53:55;;;;;;;31.15;20.45;;;11.10;93.90;;;;;;4762974;30;20028;-78
2021/10/12 03:56:21;;;;;;;40.45;22.80;;;11.10;94.00;;;;;;4791733;29;20346;-78
2021/10/12 03:58:47;;;;;;;34.95;21.65;;;11.10;94.20;;;;;;4798112;29;20031;-78
2021/10/12 04:01:13;;;;;;;41.00;22.58;;;11.00;94.30;;;;;;4797516;29;20110;-78
2021/10/12 04:03:40;;;;;;;34.97;22.30;;;11.10;94.20;;;;;;4797745;29;20053;-78
2021/10/12 04:06:06;;;;;;;32.45;21.55;;;11.10;94.30;;;;;;4797701;29;20030;-79
2021/10/12 04:08:31;;;;;;;38.22;21.88;;;11.00;94.50;;;;;;4797568;29;20047;-78
2021/10/12 04:10:57;;;;;;;41.22;23.35;;;11.00;94.50;;;;;;4797451;29;20346;-78
2021/10/12 04:13:23;;;;;;;41.05;24.40;;;11.00;94.60;;;;;;4797589;29;20027;-79
2021/10/12 04:15:49;;;;;;;34.88;22.85;;;10.90;94.70;;;;;;4797501;29;20264;-79
2021/10/12 04:18:14;;;;;;;37.00;22.42;;;10.90;94.80;;;;;;4777083;29;20349;-79
2021/10/12 04:20:40;;;;;;;37.78;23.52;;;10.90;94.70;;;;;;4761690;30;20032;-79
2021/10/12 04:23:09;;;;;;;39.35;22.95;;;10.90;94.80;;;;;;4761923;30;20036;-78
2021/10/12 04:25:35;;;;;;;32.97;20.80;;;10.90;94.80;;;;;;4761487;30;20032;-78
2021/10/12 04:28:01;;;;;;;35.35;22.77;;;10.90;94.80;;;;;;4780748;30;20031;-79
2021/10/12 04:30:27;;;;;;;34.75;23.23;;;10.90;94.90;;;;;;4782497;29;20027;-79
2021/10/12 04:32:52;;;;;;;40.38;22.77;;;10.90;94.90;;;;;;4797056;29;20037;-79
2021/10/12 04:35:18;;;;;;;34.10;22.33;;;10.90;94.90;;;;;;4797078;29;20039;-79
2021/10/12 04:37:44;;;;;;;34.38;22.05;;;10.80;95.30;;;;;;4797174;29;20031;-79
2021/10/12 04:40:10;;;;;;;41.03;22.17;;;10.80;94.90;;;;;;4782238;29;20042;-79
2021/10/12 04:42:36;;;;;;;41.15;23.67;;;10.80;95.10;;;;;;4781993;29;20035;-79
2021/10/12 04:45:03;;;;;;;38.47;22.98;;;10.80;95.30;;;;;;4797019;29;20418;-79
2021/10/12 04:47:28;;;;;;;37.83;22.45;;;10.70;95.30;;;;;;4796461;29;20047;-78
2021/10/12 04:49:54;;;;;;;35.53;22.17;;;10.70;95.40;;;;;;4798053;29;20353;-80
2021/10/12 04:52:20;;;;;;;35.30;22.80;;;10.70;95.50;;;;;;4796839;29;20065;-79
2021/10/12 04:54:45;;;;;;;37.95;22.10;;;10.70;95.50;;;;;;4782056;29;20039;-80
2021/10/12 04:57:11;;;;;;;35.83;22.35;;;10.70;95.60;;;;;;4781150;29;20031;-80
2021/10/12 04:59:37;;;;;;;35.03;21.88;;;10.70;95.70;;;;;;4798000;29;20035;-78
2021/10/12 05:02:03;;;;;;;44.30;23.35;;;10.70;95.70;;;;;;4781655;29;20031;-78
2021/10/12 05:04:28;;;;;;;35.08;22.05;;;10.70;95.60;;;;;;4796645;29;20042;-78
2021/10/12 05:06:56;;;;;;;36.00;21.73;;;10.70;95.80;;;;;;4781935;29;20035;-78
2021/10/12 05:09:22;;;;;;;38.20;22.58;;;10.70;95.90;;;;;;4796698;30;20204;-78
2021/10/12 05:11:47;;;;;;;36.25;21.30;;;10.70;95.60;;;;;;4796662;30;20035;-78
2021/10/12 05:14:15;;;;;;;40.28;20.85;;;10.70;95.60;;;;;;4781807;30;20038;-78
2021/10/12 05:16:41;;;;;;;36.72;20.35;;;10.70;96.20;;;;;;4787961;29;20131;-78
2021/10/12 05:19:07;;;;;;;39.00;20.90;;;10.70;96.00;;;;;;4760572;30;20046;-79
2021/10/12 05:21:32;;;;;;;32.30;19.35;;;10.70;95.90;;;;;;4760590;30;20264;-79
2021/10/12 05:23:59;;;;;;;29.75;18.33;;;10.70;95.80;;;;;;4761910;30;20059;-79
2021/10/12 05:26:25;;;;;;;34.53;19.35;;;10.70;96.00;;;;;;4778333;29;20104;-79
2021/10/12 05:28:52;;;;;;;31.73;18.90;;;10.80;95.90;;;;;;4777718;29;20040;-79
2021/10/12 05:31:22;;;;;;;32.08;20.05;;;10.80;95.80;;;;;;4769007;29;20032;-79
2021/10/12 05:33:48;;;;;;;29.50;19.08;;;10.90;95.60;;;;;;4767204;30;20032;-79
2021/10/12 05:36:15;;;;;;;35.10;18.50;;;11.00;95.50;;;;;;4775997;29;20034;-79
2021/10/12 05:38:41;;;;;;;31.63;17.65;;;11.10;95.50;;;;;;4766071;29;20081;-79
2021/10/12 05:41:10;;;;;;;29.95;17.92;;;11.10;95.40;;;;;;4774257;29;20039;-79
2021/10/12 05:43:36;;;;;;;29.17;17.65;;;11.30;95.20;;;;;;4777605;30;20035;-79
2021/10/12 05:46:02;;;;;;;32.30;18.52;;;11.30;95.00;;;;;;4776206;29;20052;-79
2021/10/12 05:48:28;;;;;;;28.45;17.67;;;11.40;94.80;;;;;;4771077;29;20039;-80
2021/10/12 05:50:54;;;;;;;28.35;16.90;;;11.50;94.60;;;;;;4768887;30;20032;-80
2021/10/12 05:53:25;;;;;;;29.83;17.48;;;11.60;94.50;;;;;;4772973;30;20044;-77
2021/10/12 05:56:13;;;;;;;35.90;18.05;;;11.60;94.40;;;;;;4768444;29;20037;-80
2021/10/12 05:58:48;;;;;;;28.23;17.35;;;11.70;94.20;;;;;;4770348;30;20028;-78
2021/10/12 06:01:14;;;;;;;30.48;17.65;;;11.70;93.90;;;;;;4772174;30;20039;-79
2021/10/12 06:03:40;;;;;;;31.70;17.48;;;11.80;93.60;;;;;;4792163;29;20286;-80
2021/10/12 06:06:06;;;;;;;31.50;17.58;;;11.70;93.30;;;;;;4772576;29;20058;-78
2021/10/12 06:08:33;;;;;;;28.63;17.48;;;11.80;93.30;;;;;;4770853;29;20040;-79
2021/10/12 06:11:00;;;;;;;33.55;19.67;;;11.80;93.20;;;;;;4772557;30;20076;-78
2021/10/12 06:13:27;;;;;;;28.73;16.85;;;11.90;93.10;;;;;;4780477;29;20035;-78
2021/10/12 06:15:53;;;;;;;30.23;15.65;;;11.80;92.80;;;;;;4772580;29;20020;-79
2021/10/12 06:18:19;;;;;;;31.33;14.55;;;11.90;92.60;;;;;;4775359;30;20279;-79
2021/10/12 06:20:46;;;;;;;24.20;16.08;;;11.90;92.80;;;;;;4780576;29;20204;-79
2021/10/12 06:23:12;;;;;;;28.08;16.15;;;12.00;92.70;;;;;;4795478;30;20042;-79
2021/10/12 06:25:38;;;;;;;24.50;15.43;;;12.00;92.50;;;;;;4777290;29;20032;-79
2021/10/12 06:28:05;;;;;;;25.52;15.43;;;12.00;92.40;;;;;;4781598;30;20059;-79
2021/10/12 06:30:31;;;;;;;29.52;16.73;;;12.10;92.30;;;;;;4775147;30;20036;-78
2021/10/12 06:32:57;;;;;;;32.83;16.60;;;12.20;92.20;;;;;;4772068;30;20228;-78
2021/10/12 06:35:23;;;;;;;249.30;123.25;;;12.30;92.20;;;;;;4777169;29;20063;-78
2021/10/12 06:37:49;;;;;;;126.22;61.88;;;12.30;92.10;;;;;;4779168;30;20103;-78
2021/10/12 06:40:15;;;;;;;54.53;30.33;;;12.40;92.00;;;;;;4772422;30;20067;-79
2021/10/12 06:42:41;;;;;;;37.95;23.73;;;12.40;92.00;;;;;;4780217;29;20023;-80
2021/10/12 06:45:07;;;;;;;59.20;35.58;;;12.40;91.80;;;;;;4780895;30;20126;-80
2021/10/12 06:47:33;;;;;;;31.37;17.90;;;12.50;92.00;;;;;;4776105;30;20055;-79
2021/10/12 06:49:58;;;;;;;31.27;22.00;;;12.50;91.40;;;;;;4779902;30;20351;-79
2021/10/12 06:52:24;;;;;;;41.83;25.75;;;12.40;91.60;;;;;;4772165;30;20028;-80
2021/10/12 06:54:50;;;;;;;35.58;23.00;;;12.50;91.60;;;;;;4761228;30;20092;-80
2021/10/12 06:57:17;;;;;;;36.72;18.30;;;12.60;91.70;;;;;;4793922;30;20382;-79
2021/10/12 06:59:42;;;;;;;27.58;16.38;;;12.60;91.30;;;;;;4778842;30;20039;-79
2021/10/12 07:02:08;;;;;;;25.40;14.18;;;12.60;91.00;;;;;;4777005;30;20028;-79
2021/10/12 07:04:34;;;;;;;19.10;12.32;;;12.60;91.00;;;;;;4774016;30;20036;-79
2021/10/12 07:07:00;;;;;;;28.85;18.48;;;12.60;90.80;;;;;;4779441;29;20073;-79
2021/10/12 07:09:27;;;;;;;17.77;11.85;;;12.60;90.80;;;;;;4779336;29;20047;-80
2021/10/12 07:11:52;;;;;;;21.23;10.85;;;12.70;90.50;;;;;;4778740;29;20032;-79
2021/10/12 07:14:18;;;;;;;24.80;11.27;;;12.80;90.00;;;;;;4779563;29;20031;-80
2021/10/12 07:16:44;;;;;;;24.67;11.05;;;12.80;89.70;;;;;;4779779;30;20020;-77
2021/10/12 07:19:10;;;;;;;20.65;11.55;;;12.80;89.30;;;;;;4778142;30;20042;-80
2021/10/12 07:21:36;;;;;;;16.52;10.35;;;12.80;89.90;;;;;;4778724;30;20103;-80
2021/10/12 07:24:02;;;;;;;19.83;11.30;;;12.80;89.10;;;;;;4779276;30;20044;-79
2021/10/12 07:26:28;;;;;;;18.50;10.95;;;12.80;88.70;;;;;;4779439;29;20053;-80
2021/10/12 07:28:58;;;;;;;26.65;9.93;;;12.80;89.60;;;;;;4777206;29;20070;-79
2021/10/12 07:31:23;;;;;;;22.20;11.30;;;12.80;89.30;;;;;;4774006;30;20324;-79
2021/10/12 07:33:49;;;;;;;19.48;10.43;;;12.90;89.30;;;;;;4790799;29;20038;-79
2021/10/12 07:36:15;;;;;;;18.10;10.40;;;12.90;88.80;;;;;;4779100;29;20079;-80
2021/10/12 07:38:41;;;;;;;21.63;10.00;;;13.00;88.80;;;;;;4775275;29;20059;-80
2021/10/12 07:41:07;;;;;;;24.80;10.07;;;13.00;88.20;;;;;;4769836;30;20032;-80
2021/10/12 07:43:33;;;;;;;17.63;11.48;;;13.00;87.80;;;;;;4778078;30;20335;-79
2021/10/12 07:45:59;;;;;;;26.50;12.63;;;13.10;88.20;;;;;;4777487;29;20052;-79
2021/10/12 07:48:25;;;;;;;28.38;12.40;;;13.10;88.20;;;;;;4779041;29;20270;-79
2021/10/12 07:50:51;;;;;;;27.13;13.45;;;13.10;87.90;;;;;;4777463;29;20127;-79
2021/10/12 07:53:17;;;;;;;21.63;11.73;;;13.00;88.30;;;;;;4777980;29;20227;-79
2021/10/12 07:58:09;;;;;;;20.63;10.48;;;13.00;88.60;;;;;;4779227;29;20036;-79
2021/10/12 08:00:35;;;;;;;21.15;10.35;;;13.00;88.60;;;;;;4795467;30;20034;-79
2021/10/12 08:03:02;;;;;;;19.70;9.70;;;13.20;87.40;;;;;;4786583;29;20063;-80
2021/10/12 08:05:29;;;;;;;18.92;8.32;;;13.20;87.30;;;;;;4779106;29;20334;-79
2021/10/12 08:07:55;;;;;;;;;;;13.40;86.10;;;;;;4779474;29;20051;-79
2021/10/12 08:10:22;;;;;;;23.15;12.02;;;13.50;85.90;;;;;;4779018;29;19917;-79
2021/10/12 08:12:53;;;;;;;19.10;10.77;;;13.60;85.40;;;;;;4778888;30;20039;-79
2021/10/12 08:15:20;;;;;;;17.75;10.00;;;13.80;85.10;;;;;;4778863;30;20067;-80
2021/10/12 08:17:46;;;;;;;28.27;11.63;;;14.00;84.90;;;;;;4792487;30;20030;-79
2021/10/12 08:20:12;;;;;;;16.33;8.93;;;14.00;83.80;;;;;;4796647;29;20054;-79
2021/10/12 08:22:38;;;;;;;22.00;10.10;;;14.10;84.00;;;;;;4781900;30;20031;-80
2021/10/12 08:25:06;;;;;;;26.10;11.43;;;14.10;83.10;;;;;;4797697;29;20031;-80
2021/10/12 08:27:33;;;;;;;22.77;11.25;;;14.20;82.30;;;;;;4781701;30;20063;-80
2021/10/12 08:29:58;;;;;;;19.00;9.55;;;14.20;83.20;;;;;;4796502;29;20238;-79
2021/10/12 08:32:24;;;;;;;14.15;7.97;;;14.20;82.10;;;;;;4778900;29;20051;-80
2021/10/12 08:34:50;;;;;;;19.67;8.05;;;14.20;81.70;;;;;;4778629;29;20032;-80
2021/10/12 08:37:16;;;;;;;11.98;7.85;;;14.10;81.60;;;;;;4778625;30;20104;-80
2021/10/12 08:39:43;;;;;;;20.92;7.88;;;14.00;81.50;;;;;;4778684;29;20027;-79
2021/10/12 08:42:34;;;;;;;15.07;8.70;;;14.10;81.70;;;;;;4778442;29;20051;-80
2021/10/12 08:45:03;;;;;;;16.02;8.57;;;14.10;81.50;;;;;;4778485;29;20032;-80
2021/10/12 08:47:30;;;;;;;15.60;8.73;;;14.40;82.10;;;;;;4789667;30;20110;-79
2021/10/12 08:49:58;;;;;;;18.33;8.38;;;14.50;80.80;;;;;;4781429;29;20036;-80
2021/10/12 08:52:25;;;;;;;21.10;9.18;;;14.50;80.40;;;;;;4796126;29;20320;-79
2021/10/12 08:54:52;;;;;;;17.48;7.88;;;14.40;80.20;;;;;;4796273;29;20326;-80
2021/10/12 08:57:29;;;;;;;15.75;8.57;;;14.40;80.70;;;;;;4781315;29;20045;-79
2021/10/12 08:59:58;;;;;;;;;;;14.30;80.60;;;;;;4781576;29;20064;-80
2021/10/12 09:02:26;;;;;;;17.08;9.85;;;14.40;80.90;;;;;;4778563;29;19933;-79
2021/10/12 09:04:53;;;;;;;12.60;8.07;;;14.60;80.80;;;;;;4778246;30;20259;-79
2021/10/12 09:07:25;;;;;;;18.38;9.73;;;14.80;80.90;;;;;;4778151;29;20047;-80
2021/10/12 09:09:52;;;;;;;18.13;9.20;;;14.90;79.70;;;;;;4778165;30;20039;-79
2021/10/12 09:12:37;;;;;;;18.90;10.75;;;15.10;78.80;;;;;;4778051;30;20319;-80
2021/10/12 09:15:04;;;;;;;22.52;10.60;;;14.90;77.70;;;;;;4776454;29;20028;-80
2021/10/12 09:17:34;;;;;;;21.25;11.13;;;14.90;80.30;;;;;;4773217;30;20023;-80
2021/10/12 09:20:11;;;;;;;20.45;10.52;;;15.10;80.30;;;;;;4777137;30;20235;-80
2021/10/12 09:22:39;;;;;;;15.65;9.63;;;15.30;78.80;;;;;;4777244;30;20100;-80
2021/10/12 09:25:13;;;;;;;16.48;9.20;;;15.50;78.40;;;;;;4777676;29;20039;-80
2021/10/12 09:27:55;;;;;;;19.98;9.52;;;15.60;77.50;;;;;;4779338;29;20034;-80
2021/10/12 09:30:29;;;;;;;19.63;11.25;;;15.50;76.20;;;;;;4777739;29;20327;-80
2021/10/12 09:33:13;;;;;;;20.80;9.52;;;15.50;76.70;;;;;;4777025;30;20058;-79
2021/10/12 09:35:38;;;;;;;19.10;10.43;;;15.50;75.70;;;;;;4777586;29;20124;-80
2021/10/12 09:38:09;;;;;;;19.17;8.82;;;15.30;77.20;;;;;;4768336;30;20095;-80
2021/10/12 09:40:37;;;;;;;14.70;8.48;;;15.40;77.60;;;;;;4768986;29;20027;-79
2021/10/12 09:43:04;;;;;;;15.50;8.70;;;15.40;77.00;;;;;;4766720;30;20324;-79
2021/10/12 09:45:40;;;;;;;17.30;8.57;;;15.50;76.90;;;;;;4778566;29;20031;-79
2021/10/12 09:48:32;;;;;;;18.30;9.07;;;15.60;76.80;;;;;;4798561;30;20043;-80
2021/10/12 09:51:14;;;;;;;16.95;8.75;;;15.90;76.20;;;;;;4784146;29;20035;-81
2021/10/12 09:53:42;;;;;;;15.13;8.80;;;16.00;76.50;;;;;;4782149;29;20084;-80
2021/10/12 09:56:09;;;;;;;24.20;10.40;;;16.00;74.80;;;;;;4779245;29;20040;-80
2021/10/12 09:58:36;;;;;;;15.40;8.70;;;15.80;74.60;;;;;;4781616;29;20346;-80
2021/10/12 10:01:08;;;;;;;16.70;8.07;;;15.50;75.70;;;;;;4784579;29;20032;-79
2021/10/12 10:03:34;;;;;;;11.25;7.15;;;15.40;76.10;;;;;;4764403;30;20032;-79
2021/10/12 10:06:08;;;;;;;15.32;7.28;;;15.50;77.00;;;;;;4763470;30;20279;-79
2021/10/12 10:08:38;;;;;;;17.30;7.22;;;15.30;76.10;;;;;;4763521;30;20047;-79
2021/10/12 10:11:06;;;;;;;14.40;7.25;;;15.00;76.20;;;;;;4764407;30;20028;-79
2021/10/12 10:13:33;;;;;;;12.70;6.97;;;14.90;77.50;;;;;;4763467;30;20028;-79
2021/10/12 10:16:01;;;;;;;13.73;6.75;;;14.80;77.70;;;;;;4763669;30;20263;-79
2021/10/12 10:18:28;;;;;;;13.75;7.47;;;14.80;78.00;;;;;;4798009;29;20027;-79
2021/10/12 10:20:55;;;;;;;15.73;7.33;;;14.70;78.60;;;;;;4799537;29;20327;-79
2021/10/12 10:24:01;;;;;;;;;;;14.80;79.10;;;;;;4784202;30;20027;-79
2021/10/12 10:26:32;;;;;;;11.48;6.18;;;14.80;77.90;;;;;;4797456;29;19940;-79
2021/10/12 10:29:28;;;;;;;16.23;5.93;;;14.80;78.10;;;;;;4782643;30;20043;-79
2021/10/12 10:32:00;;;;;;;9.15;6.22;;;14.90;77.70;;;;;;4747292;30;20274;-80
2021/10/12 10:34:44;;;;;;;15.13;6.63;;;15.00;77.50;;;;;;4762030;30;20036;-79
2021/10/12 10:37:16;;;;;;;12.80;5.80;;;14.80;76.20;;;;;;4732647;30;20385;-79
2021/10/12 10:39:53;;;;;;;12.13;5.97;;;14.70;77.60;;;;;;4761609;30;20051;-80
2021/10/12 10:42:38;;;;;;;15.40;8.77;;;14.80;77.00;;;;;;4747192;30;20090;-80
2021/10/12 10:45:05;;;;;;;11.27;6.45;;;14.90;76.70;;;;;;4747074;30;20040;-78
2021/10/12 10:47:42;;;;;;;;;;;15.10;77.00;;;;;;4721203;30;20056;-79
2021/10/12 10:50:33;;;;;;;12.77;7.80;;;15.10;76.70;;;;;;4744161;30;20233;-78
2021/10/12 10:53:03;;;;;;;14.80;6.90;;;15.20;76.90;;;;;;4729585;30;20037;-79
2021/10/12 10:55:41;;;;;;;16.58;7.30;;;15.00;77.70;;;;;;4728445;30;20041;-79
2021/10/12 10:58:15;;;;;;;15.70;7.90;;;15.00;78.90;;;;;;4743972;30;20120;-79
2021/10/12 11:00:44;;;;;;;9.93;6.28;;;15.00;78.90;;;;;;4747035;30;20036;-79
2021/10/12 11:03:28;;;;;;;13.98;7.28;;;15.00;79.00;;;;;;4761664;30;20040;-80
2021/10/12 11:05:54;;;;;;;12.13;6.53;;;14.90;80.00;;;;;;4746866;30;20107;-79
2021/10/12 11:08:28;;;;;;;14.30;7.35;;;14.90;80.10;;;;;;4763353;30;20040;-79
2021/10/12 11:10:59;;;;;;;14.65;7.45;;;14.90;80.50;;;;;;4780012;29;20034;-79
2021/10/12 11:13:33;;;;;;;17.13;6.50;;;14.90;80.20;;;;;;4780101;29;20031;-79
2021/10/12 11:16:01;;;;;;;16.05;7.35;;;15.00;80.30;;;;;;4780150;29;20047;-79
2021/10/12 11:18:27;;;;;;;12.00;6.97;;;15.00;79.10;;;;;;4797597;29;20041;-79
2021/10/12 11:20:55;;;;;;;13.40;6.45;;;15.20;79.10;;;;;;4798759;29;20227;-79
2021/10/12 11:23:30;;;;;;;13.35;6.75;;;15.40;78.50;;;;;;4782511;29;20047;-79
2021/10/12 11:25:58;;;;;;;14.43;7.20;;;15.50;77.70;;;;;;4782617;29;20035;-80
2021/10/12 11:28:26;;;;;;;11.32;6.35;;;15.60;77.40;;;;;;4797344;29;20042;-79
2021/10/12 11:30:52;;;;;;;9.70;5.25;;;15.70;75.00;;;;;;4782726;29;20027;-79
2021/10/12 11:33:35;;;;;;;10.73;5.27;;;15.70;74.90;;;;;;4797507;29;20036;-79
2021/10/12 11:36:03;;;;;;;11.82;5.75;;;15.80;73.50;;;;;;4782535;29;20097;-80
2021/10/12 11:38:31;;;;;;;10.80;6.03;;;15.90;73.40;;;;;;4782512;29;20216;-79
2021/10/12 11:40:59;;;;;;;9.38;5.85;;;15.90;73.50;;;;;;4797358;29;20035;-79
2021/10/12 11:43:34;;;;;;;13.95;6.80;;;16.10;73.20;;;;;;4782527;29;20331;-79
2021/10/12 11:46:00;;;;;;;16.13;7.57;;;16.00;72.50;;;;;;4797036;29;20400;-79
2021/10/12 11:48:26;;;;;;;14.20;7.40;;;15.90;74.10;;;;;;4797077;29;20046;-79
2021/10/12 11:50:52;;;;;;;12.93;7.82;;;15.90;73.80;;;;;;4797318;30;20035;-79
2021/10/12 11:53:28;;;;;;;11.93;7.60;;;15.90;74.30;;;;;;4797303;29;20237;-79
2021/10/12 11:56:07;;;;;;;15.48;8.30;;;16.10;74.30;;;;;;4782200;29;20238;-80
2021/10/12 11:58:32;;;;;;;13.70;8.38;;;16.20;74.90;;;;;;4797192;30;20139;-79
2021/10/12 12:00:58;;;;;;;13.50;9.13;;;16.30;74.00;;;;;;4797180;29;20114;-79
2021/10/12 12:03:24;;;;;;;19.80;9.48;;;16.40;73.80;;;;;;4796899;29;20093;-79
2021/10/12 12:05:55;;;;;;;14.63;9.30;;;16.30;73.20;;;;;;4796738;29;20055;-79
2021/10/12 12:08:23;;;;;;;23.67;10.70;;;16.10;73.70;;;;;;4781890;29;20043;-78
2021/10/12 12:10:50;;;;;;;15.13;9.38;;;16.00;73.80;;;;;;4796938;29;20257;-78
2021/10/12 12:13:16;;;;;;;;;;;15.90;74.30;;;;;;4797236;29;20037;-79
2021/10/12 12:15:42;;;;;;;16.07;9.30;;;15.80;75.20;;;;;;4796763;29;19940;-78
2021/10/12 12:18:18;;;;;;;22.30;9.60;;;15.60;74.40;;;;;;4782174;29;20027;-78
2021/10/12 12:20:56;;;;;;;20.25;9.10;;;15.30;75.20;;;;;;4781981;29;20050;-78
2021/10/12 12:23:42;;;;;;;13.95;8.38;;;15.10;75.80;;;;;;4781841;29;20027;-78
2021/10/12 12:26:14;;;;;;;14.02;7.50;;;15.00;76.50;;;;;;4796663;29;20203;-78
2021/10/12 12:28:40;;;;;;;11.02;6.32;;;14.70;77.00;;;;;;4796348;29;20106;-78
2021/10/12 12:31:27;;;;;;;10.00;6.50;;;14.50;77.70;;;;;;4781869;29;20099;-78
2021/10/12 12:33:57;;;;;;;14.07;6.20;;;14.20;80.60;;;;;;4781599;29;20062;-78
2021/10/12 12:36:34;;;;;;;15.45;6.10;;;14.00;81.10;;;;;;4796278;29;20035;-79
2021/10/12 12:39:08;;;;;;;7.57;4.40;;;14.00;82.30;;;;;;4796607;30;20334;-79
2021/10/12 12:41:39;;;;;;;8.82;5.53;;;14.10;80.60;;;;;;4797537;30;20063;-79
2021/10/12 12:44:06;;;;;;;8.85;4.68;;;14.10;81.00;;;;;;4781441;29;20089;-79
2021/10/12 12:46:34;;;;;;;9.07;4.68;;;14.10;81.80;;;;;;4791367;29;20051;-79
2021/10/12 12:49:16;;;;;;;8.37;5.37;;;14.10;82.50;;;;;;4793252;29;20043;-79
2021/10/12 12:51:46;;;;;;;9.38;6.05;;;14.10;83.40;;;;;;4793484;29;20239;-79
2021/10/12 12:54:35;;;;;;;8.93;5.70;;;13.90;83.60;;;;;;4776131;29;20032;-79
2021/10/12 12:57:12;;;;;;;13.13;6.15;;;14.00;84.00;;;;;;4785136;29;20034;-79
2021/10/12 12:59:39;;;;;;;;;;;13.90;84.30;;;;;;4784197;29;20219;-79
2021/10/12 13:02:15;;;;;;;12.68;6.93;;;13.90;84.60;;;;;;4777502;30;19910;-79
2021/10/12 13:04:41;;;;;;;12.55;7.18;;;13.90;84.60;;;;;;4778007;29;20077;-79
2021/10/12 13:07:07;;;;;;;11.02;6.45;;;14.00;84.20;;;;;;4778205;30;20341;-79
2021/10/12 13:09:32;;;;;;;7.43;5.40;;;14.00;83.70;;;;;;4777684;30;20138;-79
2021/10/12 13:11:58;;;;;;;8.40;5.43;;;13.90;83.10;;;;;;4778167;30;20026;-79
2021/10/12 13:14:24;;;;;;;10.15;6.70;;;13.90;84.00;;;;;;4778087;29;20395;-79
2021/10/12 13:16:49;;;;;;;10.30;6.75;;;13.90;84.10;;;;;;4784544;30;20042;-79
2021/10/12 13:19:15;;;;;;;15.57;7.03;;;13.90;84.90;;;;;;4795448;29;20275;-79
2021/10/12 13:21:41;;;;;;;14.48;8.50;;;13.80;85.60;;;;;;4795852;29;20039;-79
2021/10/12 13:24:07;;;;;;;16.65;9.52;;;14.00;85.80;;;;;;4781006;29;20082;-79
2021/10/12 13:26:32;;;;;;;14.65;10.02;;;14.00;86.00;;;;;;4795581;29;20331;-79
2021/10/12 13:28:58;;;;;;;17.58;10.15;;;13.90;87.00;;;;;;4785035;29;20040;-79
2021/10/12 13:31:28;;;;;;;14.80;9.80;;;13.90;86.90;;;;;;4777694;29;20023;-79
2021/10/12 13:33:55;;;;;;;14.10;10.30;;;13.80;87.50;;;;;;4778626;30;20036;-79
2021/10/12 13:36:20;;;;;;;18.33;10.90;;;13.80;88.10;;;;;;4777505;30;20077;-80
2021/10/12 13:38:46;;;;;;;15.38;11.10;;;13.80;88.30;;;;;;4778353;30;20035;-79
2021/10/12 13:41:12;;;;;;;16.73;10.27;;;13.80;88.80;;;;;;4777854;30;20100;-79
2021/10/12 13:43:38;;;;;;;18.05;10.57;;;13.90;88.90;;;;;;4777868;30;20063;-79
2021/10/12 13:46:03;;;;;;;19.00;10.15;;;13.90;88.50;;;;;;4777397;30;20055;-79
2021/10/12 13:48:29;;;;;;;15.13;9.52;;;13.90;87.30;;;;;;4777612;29;20039;-79
2021/10/12 13:50:55;;;;;;;15.35;9.57;;;13.80;87.60;;;;;;4777786;29;20035;-79
2021/10/12 13:53:21;;;;;;;19.02;9.18;;;13.80;87.90;;;;;;4778878;30;20038;-79
2021/10/12 13:55:46;;;;;;;16.15;9.43;;;13.80;87.60;;;;;;4777608;29;20209;-79
2021/10/12 13:58:12;;;;;;;15.07;8.88;;;13.90;87.20;;;;;;4777676;29;20119;-79
2021/10/12 14:00:38;;;;;;;13.10;9.05;;;13.80;86.50;;;;;;4784198;29;20040;-79
2021/10/12 14:03:05;;;;;;;18.55;10.50;;;13.80;86.90;;;;;;4777269;29;20031;-80
2021/10/12 14:05:36;;;;;;;17.20;9.60;;;13.70;87.60;;;;;;4777600;30;20016;-79
2021/10/12 14:08:02;;;;;;;12.52;7.80;;;13.70;88.50;;;;;;4777341;30;20219;-79
2021/10/12 14:10:27;;;;;;;18.83;9.40;;;13.80;88.60;;;;;;4777261;30;20149;-79
2021/10/12 14:12:53;;;;;;;13.88;9.32;;;13.90;89.10;;;;;;4776933;29;20032;-79
2021/10/12 14:15:19;;;;;;;13.20;7.63;;;14.00;87.60;;;;;;4777299;30;20046;-79
2021/10/12 14:17:45;;;;;;;10.70;7.63;;;14.00;87.00;;;;;;4779190;30;20035;-79
2021/10/12 14:20:13;;;;;;;12.35;6.70;;;14.00;87.00;;;;;;4777257;29;20103;-79
2021/10/12 14:22:39;;;;;;;11.80;6.18;;;14.10;85.90;;;;;;4777363;29;20050;-79
2021/10/12 14:25:06;;;;;;;11.23;7.45;;;14.10;85.00;;;;;;4775323;30;20043;-79
2021/10/12 14:27:32;;;;;;;9.90;6.78;;;14.20;84.80;;;;;;4771428;29;20040;-79
2021/10/12 14:30:02;;;;;;;8.80;4.95;;;14.10;84.00;;;;;;4777014;29;20049;-79
2021/10/12 14:32:30;;;;;;;9.07;5.20;;;14.10;83.50;;;;;;4769306;30;20086;-79
2021/10/12 14:34:56;;;;;;;6.07;3.65;;;14.00;83.20;;;;;;4768501;30;20028;-79
2021/10/12 14:37:22;;;;;;;5.60;3.57;;;14.00;82.10;;;;;;4777038;30;20031;-79
2021/10/12 14:39:49;;;;;;;6.60;3.50;;;14.00;80.70;;;;;;4781331;30;20473;-79
2021/10/12 14:42:14;;;;;;;;;;;14.00;80.70;;;;;;4782216;30;20209;-79
2021/10/12 14:44:40;;;;;;;9.40;4.33;;;13.90;81.50;;;;;;4780157;30;19977;-79
2021/10/12 14:47:06;;;;;;;7.00;4.47;;;13.80;82.30;;;;;;4779941;30;20052;-79
2021/10/12 14:49:32;;;;;;;11.38;4.47;;;13.70;83.40;;;;;;4780168;30;20047;-79
2021/10/12 14:51:58;;;;;;;8.77;5.05;;;13.70;84.40;;;;;;4779880;29;20338;-79
2021/10/12 14:54:24;;;;;;;7.75;5.30;;;13.80;85.10;;;;;;4780494;30;20111;-79
2021/10/12 14:56:49;;;;;;;9.30;5.63;;;13.70;85.50;;;;;;4780038;29;20031;-80
2021/10/12 14:59:15;;;;;;;11.05;5.07;;;13.70;86.20;;;;;;4787125;30;20235;-79
2021/10/12 15:01:41;;;;;;;8.65;5.57;;;13.70;86.60;;;;;;4784273;29;20211;-79
2021/10/12 15:04:07;;;;;;;10.93;6.28;;;13.70;87.00;;;;;;4778819;30;20062;-77
2021/10/12 15:06:34;;;;;;;10.88;6.63;;;13.70;87.10;;;;;;4780317;30;20035;-78
2021/10/12 15:09:00;;;;;;;11.52;7.00;;;13.60;88.10;;;;;;4780936;30;20223;-78
2021/10/12 15:11:27;;;;;;;10.43;6.50;;;13.60;88.60;;;;;;4775197;30;20078;-78
2021/10/12 15:13:53;;;;;;;12.05;7.75;;;13.60;88.80;;;;;;4780777;29;20275;-78
2021/10/12 15:16:19;;;;;;;11.50;7.45;;;13.60;89.00;;;;;;4782456;30;20278;-78
2021/10/12 15:18:45;;;;;;;12.13;8.10;;;13.60;88.60;;;;;;4769995;30;20099;-78
2021/10/12 15:21:11;;;;;;;11.40;7.70;;;13.60;88.70;;;;;;4784178;30;20027;-78
2021/10/12 15:23:37;;;;;;;18.67;9.82;;;13.70;88.70;;;;;;4779935;30;20035;-77
2021/10/12 15:26:03;;;;;;;13.82;8.50;;;13.70;88.80;;;;;;4779618;30;20343;-79
2021/10/12 15:28:29;;;;;;;17.27;10.02;;;13.70;88.80;;;;;;4781193;30;20031;-78